Kariya, Japan
Current Conditions -  °F | °C
As of 3:00 PM on Saturday 20 Dec 2014 (Local Time) from RJGG Reporting Station
Rain Showers Rain Showers  
Wind Chill: 37°   Ceiling: 1200
Heat Index: 43°   Visibility: 2.8mi
Dew Point: 39°   Wind: 9mph
Humidity: 87%   Direction: 350°N
Pressure: 29.8"   Gusts: NA
Location:  34.99°N, 137°E
Report Text: RJGG 200600Z 35008KT 4500 SHRA BR FEW008 BKN012 06/04 Q1009 WS R36 TEMPO 3000 SHRA BR FEW005 BKN008 BKN015
Loading
Personal Weather Stations






























Interactive Weather Map New forecast layout! Learn more

10-Day Weather Forecast

Advertisements
Track Severe Weather on mobile